createdAt,value
2018-09-14T00:02:59.691Z,20.37
2018-09-14T00:06:03.437Z,20.10
2018-09-14T00:09:10.182Z,20.87
2018-09-14T00:12:13.797Z,19.80
2018-09-14T00:15:18.573Z,21.07
2018-09-14T00:18:22.231Z,21.37
2018-09-14T00:21:25.817Z,20.33
2018-09-14T00:24:30.177Z,19.77
2018-09-14T00:27:33.946Z,21.00
2018-09-14T00:30:37.587Z,19.53
2018-09-14T00:33:41.248Z,20.40
2018-09-14T00:36:44.861Z,20.60
2018-09-14T00:39:48.589Z,21.63
2018-09-14T00:42:52.383Z,23.87
2018-09-14T00:45:56.038Z,22.70
2018-09-14T00:48:59.678Z,21.90
2018-09-14T00:52:03.334Z,20.20
2018-09-14T00:55:07.076Z,20.40
2018-09-14T00:58:10.744Z,21.43
2018-09-14T01:01:14.303Z,23.07
2018-09-14T01:04:17.988Z,21.87
2018-09-14T01:07:21.592Z,21.80
2018-09-14T01:10:25.382Z,22.37
2018-09-14T01:13:29.113Z,23.57
2018-09-14T01:16:32.863Z,25.40
2018-09-14T01:19:36.631Z,23.93
2018-09-14T01:22:40.282Z,24.33
2018-09-14T01:25:44.020Z,25.40
2018-09-14T01:28:47.727Z,23.93
2018-09-14T01:31:51.497Z,24.53
2018-09-14T01:34:55.160Z,23.43
2018-09-14T01:37:58.781Z,24.80
2018-09-14T01:41:02.453Z,26.97
2018-09-14T01:44:06.486Z,26.63
2018-09-14T01:47:10.132Z,26.90
2018-09-14T01:50:13.765Z,26.93
2018-09-14T01:53:17.478Z,28.93
2018-09-14T01:56:21.147Z,30.10
2018-09-14T01:59:24.778Z,30.73
2018-09-14T02:02:28.371Z,29.93
2018-09-14T02:05:32.062Z,30.13
2018-09-14T02:08:35.822Z,31.37
2018-09-14T02:11:39.496Z,28.33
2018-09-14T02:14:43.152Z,29.57
2018-09-14T02:17:47.246Z,29.67
2018-09-14T02:20:50.816Z,29.27
2018-09-14T02:23:54.437Z,24.40
2018-09-14T02:26:58.082Z,23.43
2018-09-14T02:30:01.733Z,21.43
2018-09-14T02:33:05.473Z,20.37
2018-09-14T02:36:10.041Z,21.10
2018-09-14T02:39:13.727Z,22.73
2018-09-14T02:42:17.323Z,23.00
2018-09-14T02:45:21.136Z,23.33
2018-09-14T02:48:24.866Z,25.90
2018-09-14T02:51:29.405Z,25.80
2018-09-14T02:54:34.218Z,25.10
2018-09-14T02:57:37.985Z,24.20
2018-09-14T03:00:41.746Z,23.83
2018-09-14T03:03:45.392Z,23.70
2018-09-14T03:06:49.042Z,25.50
2018-09-14T03:09:52.684Z,27.27
2018-09-14T03:12:56.423Z,24.90
2018-09-14T03:16:00.088Z,26.47
2018-09-14T03:19:03.826Z,28.10
2018-09-14T03:22:07.561Z,25.70
2018-09-14T03:25:11.160Z,26.73
2018-09-14T03:28:14.789Z,26.73
2018-09-14T03:31:18.411Z,26.60
2018-09-14T03:34:22.069Z,26.60
2018-09-14T03:37:25.666Z,23.77
2018-09-14T03:40:29.372Z,25.03
2018-09-14T03:43:32.943Z,24.00
2018-09-14T03:46:36.581Z,23.40
2018-09-14T03:49:40.188Z,22.20
2018-09-14T03:52:43.810Z,22.20
2018-09-14T03:55:47.479Z,16.90
2018-09-14T03:58:51.167Z,15.40
2018-09-14T04:01:54.826Z,13.40
2018-09-14T04:04:58.492Z,9.70
2018-09-14T04:08:02.141Z,8.80
2018-09-14T04:11:05.792Z,9.70
2018-09-14T04:14:09.468Z,12.33
2018-09-14T04:17:13.208Z,17.30
2018-09-14T04:20:16.969Z,11.20
2018-09-14T04:23:20.719Z,9.57
2018-09-14T04:26:24.595Z,8.80
2018-09-14T04:29:28.278Z,11.63
2018-09-14T04:32:31.983Z,14.50
2018-09-14T04:35:35.611Z,14.20
2018-09-14T04:38:39.413Z,13.10
2018-09-14T04:41:42.980Z,13.80
2018-09-14T04:44:47.003Z,19.00
2018-09-14T04:47:50.864Z,18.90
2018-09-14T04:50:54.623Z,20.20
2018-09-14T04:53:58.351Z,14.60
2018-09-14T04:57:02.318Z,12.83
2018-09-14T05:00:06.139Z,12.43
2018-09-14T05:03:09.758Z,15.93
2018-09-14T05:06:13.473Z,15.30
2018-09-14T05:09:17.132Z,10.90
2018-09-14T05:12:20.786Z,16.93
2018-09-14T05:15:24.511Z,14.03
2018-09-14T05:18:28.232Z,17.50
2018-09-14T05:21:31.936Z,14.87
2018-09-14T05:24:35.599Z,13.30
2018-09-14T05:27:39.208Z,14.17
2018-09-14T05:30:42.924Z,12.90
2018-09-14T05:33:46.616Z,11.60
2018-09-14T05:36:50.311Z,12.40
2018-09-14T05:39:53.912Z,11.80
2018-09-14T05:42:57.632Z,11.03
2018-09-14T05:46:01.227Z,12.70
2018-09-14T05:49:05.083Z,14.50
2018-09-14T05:52:08.789Z,11.60
2018-09-14T05:55:12.507Z,12.70
2018-09-14T05:58:16.115Z,12.90
2018-09-14T06:01:19.896Z,10.80
2018-09-14T06:04:23.449Z,11.97
2018-09-14T06:07:27.294Z,10.00
2018-09-14T06:10:30.903Z,10.40
2018-09-14T06:13:34.568Z,9.10
2018-09-14T06:16:38.619Z,9.53
2018-09-14T06:19:42.243Z,10.07
2018-09-14T06:22:45.871Z,9.00
2018-09-14T06:25:49.544Z,9.80
2018-09-14T06:28:53.266Z,9.07
2018-09-14T06:31:56.833Z,9.40
2018-09-14T06:35:00.592Z,9.03
2018-09-14T06:38:04.250Z,7.70
2018-09-14T06:41:07.951Z,8.33
2018-09-14T06:44:11.613Z,7.97
2018-09-14T06:47:15.310Z,7.27
2018-09-14T06:50:18.931Z,8.30
2018-09-14T06:53:22.661Z,8.47
2018-09-14T06:56:26.211Z,8.10
2018-09-14T06:59:29.991Z,8.37
2018-09-14T07:02:33.633Z,7.90
2018-09-14T07:05:37.427Z,7.30
2018-09-14T07:08:41.357Z,7.83
2018-09-14T07:11:44.963Z,8.23
2018-09-14T07:14:48.650Z,7.90
2018-09-14T07:17:52.416Z,9.57
2018-09-14T07:20:55.996Z,9.83
2018-09-14T07:23:59.648Z,9.33
2018-09-14T07:27:03.402Z,9.83
2018-09-14T07:30:07.131Z,10.70
2018-09-14T07:33:10.792Z,10.80
2018-09-14T07:36:14.529Z,10.10
2018-09-14T07:39:18.107Z,10.30
2018-09-14T07:42:21.819Z,10.03
2018-09-14T07:45:25.427Z,8.53
2018-09-14T07:48:29.119Z,10.30
2018-09-14T07:51:32.673Z,9.77
2018-09-14T07:54:36.321Z,10.30
2018-09-14T07:57:40.075Z,11.17
2018-09-14T08:00:43.728Z,10.13
2018-09-14T08:03:47.426Z,9.73
2018-09-14T08:06:51.383Z,10.63
2018-09-14T08:09:55.037Z,12.07
2018-09-14T08:12:58.696Z,12.07
2018-09-14T08:16:02.348Z,12.40
2018-09-14T08:19:06.447Z,10.33
2018-09-14T08:22:10.109Z,11.60
2018-09-14T08:25:13.899Z,12.10
2018-09-14T08:28:17.588Z,13.00
2018-09-14T08:31:21.218Z,13.03
2018-09-14T08:34:24.776Z,14.17
2018-09-14T08:37:28.520Z,14.63
2018-09-14T08:40:32.128Z,14.17
2018-09-14T08:43:35.762Z,14.30
2018-09-14T08:46:39.368Z,13.57
2018-09-14T08:49:42.976Z,16.20
2018-09-14T08:52:48.035Z,14.50
2018-09-14T08:55:51.621Z,16.00
2018-09-14T08:58:55.367Z,16.37
2018-09-14T09:01:59.012Z,16.30
2018-09-14T09:05:02.611Z,15.93
2018-09-14T09:08:06.481Z,16.17
2018-09-14T09:11:10.156Z,16.90
2018-09-14T09:14:13.842Z,19.10
2018-09-14T09:17:17.468Z,20.27
2018-09-14T09:20:21.262Z,19.43
2018-09-14T09:23:24.993Z,22.43
2018-09-14T09:26:29.052Z,20.07
2018-09-14T09:29:32.655Z,21.27
2018-09-14T09:32:36.304Z,22.17
2018-09-14T09:35:40.096Z,22.03
2018-09-14T09:38:43.699Z,22.90
2018-09-14T09:41:47.370Z,23.73
2018-09-14T09:44:51.048Z,22.17
2018-09-14T09:47:54.831Z,22.70
2018-09-14T09:50:58.541Z,23.53
2018-09-14T09:54:02.331Z,21.50
2018-09-14T09:57:06.028Z,22.00
2018-09-14T10:00:14.893Z,20.63
2018-09-14T10:04:24.446Z,21.30
2018-09-14T10:07:28.226Z,24.10
2018-09-14T10:10:31.916Z,23.50
2018-09-14T10:13:35.557Z,25.53
2018-09-14T10:16:39.312Z,25.20
2018-09-14T10:19:43.021Z,25.10
2018-09-14T10:22:46.706Z,23.63
2018-09-14T10:25:50.372Z,24.80
2018-09-14T10:28:54.218Z,23.43
2018-09-14T10:31:57.990Z,23.80
2018-09-14T10:35:01.700Z,23.53
2018-09-14T10:38:05.655Z,24.70
2018-09-14T10:41:09.459Z,24.83
2018-09-14T10:44:13.119Z,23.37
2018-09-14T10:47:16.745Z,23.23
2018-09-14T10:50:20.442Z,23.80
2018-09-14T10:53:24.098Z,23.47
2018-09-14T10:56:27.716Z,24.13
2018-09-14T10:59:31.324Z,24.03
2018-09-14T11:02:35.077Z,23.57
2018-09-14T11:05:38.729Z,22.70
2018-09-14T11:08:42.464Z,23.50
2018-09-14T11:11:46.144Z,22.90
2018-09-14T11:14:49.849Z,23.40
2018-09-14T11:17:53.487Z,22.40
2018-09-14T11:20:57.140Z,22.27
2018-09-14T11:24:00.952Z,21.90
2018-09-14T11:27:04.581Z,20.73
2018-09-14T11:30:08.971Z,22.23
2018-09-14T11:33:12.847Z,22.23
2018-09-14T11:36:16.682Z,21.00
2018-09-14T11:39:20.337Z,20.43
2018-09-14T11:42:24.316Z,22.40
2018-09-14T11:45:28.017Z,21.63
2018-09-14T11:48:31.662Z,17.93
2018-09-14T11:51:35.550Z,16.03
2018-09-14T11:54:39.183Z,17.33
2018-09-14T11:57:42.978Z,15.90
2018-09-14T12:00:47.416Z,17.10
2018-09-14T12:03:51.169Z,15.23
2018-09-14T12:06:54.916Z,13.77
2018-09-14T12:09:58.861Z,12.50
2018-09-14T12:13:02.591Z,11.80
2018-09-14T12:16:06.347Z,12.50
2018-09-14T12:19:10.056Z,12.67
2018-09-14T12:22:13.788Z,13.73
2018-09-14T12:25:17.517Z,12.80
2018-09-14T12:28:21.345Z,12.50
2018-09-14T12:31:25.126Z,11.40
2018-09-14T12:34:28.874Z,11.97
2018-09-14T12:37:32.536Z,12.13
2018-09-14T12:40:36.200Z,12.03
2018-09-14T12:43:39.841Z,11.97
2018-09-14T12:46:43.538Z,11.23
2018-09-14T12:49:47.197Z,11.87
2018-09-14T12:52:50.852Z,10.67
2018-09-14T12:55:54.516Z,10.80
2018-09-14T12:58:58.233Z,11.70
2018-09-14T13:02:01.913Z,11.77
2018-09-14T13:05:05.732Z,12.50
2018-09-14T13:08:09.447Z,11.40
2018-09-14T13:11:13.172Z,10.60
2018-09-14T13:14:20.158Z,11.10
2018-09-14T13:17:23.896Z,10.67
2018-09-14T13:20:27.682Z,9.83
2018-09-14T13:23:31.356Z,11.80
2018-09-14T13:26:35.231Z,11.87
2018-09-14T13:29:38.903Z,11.30
2018-09-14T13:32:46.077Z,12.47
2018-09-14T13:35:49.709Z,10.73
2018-09-14T13:38:53.392Z,10.77
2018-09-14T13:41:57.048Z,11.33
2018-09-14T13:45:00.761Z,12.00
2018-09-14T13:48:04.587Z,11.97
2018-09-14T13:51:08.440Z,11.27
2018-09-14T13:54:12.056Z,10.70
2018-09-14T13:57:15.786Z,10.13
2018-09-14T14:00:19.495Z,9.93
2018-09-14T14:03:23.370Z,9.47
2018-09-14T14:06:26.977Z,10.93
2018-09-14T14:09:30.756Z,11.60
2018-09-14T14:12:34.506Z,10.87
2018-09-14T14:15:38.120Z,11.47
2018-09-14T14:18:41.920Z,10.30
2018-09-14T14:21:45.620Z,11.00
2018-09-14T14:24:49.301Z,10.17
2018-09-14T14:27:53.132Z,9.93
2018-09-14T14:30:56.761Z,10.00
2018-09-14T14:34:00.456Z,8.80
2018-09-14T14:37:05.777Z,11.30
2018-09-14T14:40:09.597Z,8.83
2018-09-14T14:43:13.354Z,9.93
2018-09-14T14:46:17.002Z,10.70
2018-09-14T14:49:20.828Z,9.47
2018-09-14T14:52:24.685Z,10.43
2018-09-14T14:55:28.408Z,9.70
2018-09-14T14:58:32.270Z,9.90
2018-09-14T15:01:36.018Z,10.00
2018-09-14T15:04:39.823Z,11.20
2018-09-14T15:07:44.858Z,9.87
2018-09-14T15:10:48.755Z,10.80
2018-09-14T15:13:52.429Z,9.60
2018-09-14T15:16:56.137Z,9.80
2018-09-14T15:19:59.797Z,11.10
2018-09-14T15:23:03.496Z,11.30
2018-09-14T15:26:07.161Z,11.60
2018-09-14T15:29:10.805Z,11.53
2018-09-14T15:32:14.509Z,9.57
2018-09-14T15:35:18.648Z,9.77
2018-09-14T15:38:22.371Z,11.10
2018-09-14T15:41:26.796Z,10.80
2018-09-14T15:44:30.841Z,11.90
2018-09-14T15:47:39.027Z,10.90
2018-09-14T15:50:44.011Z,10.10
2018-09-14T15:53:49.387Z,10.70
2018-09-14T15:56:54.476Z,11.50
2018-09-14T15:59:58.275Z,11.23
2018-09-14T16:03:03.781Z,12.20
2018-09-14T16:06:07.687Z,12.47
2018-09-14T16:09:11.930Z,14.20
2018-09-14T16:12:15.752Z,14.27
2018-09-14T16:15:23.756Z,13.93
2018-09-14T16:18:27.427Z,12.97
2018-09-14T16:21:31.380Z,13.40
2018-09-14T16:24:35.096Z,13.00
2018-09-14T16:27:38.838Z,13.97
2018-09-14T16:30:42.603Z,12.70
2018-09-14T16:33:46.296Z,12.00
2018-09-14T16:36:50.266Z,11.03
2018-09-14T16:39:53.962Z,13.03
2018-09-14T16:42:57.612Z,13.13
2018-09-14T16:46:01.271Z,11.33
2018-09-14T16:49:05.045Z,10.30
2018-09-14T16:52:09.174Z,9.70
2018-09-14T16:55:13.042Z,8.97
2018-09-14T16:58:16.822Z,9.03
2018-09-14T17:01:21.117Z,12.40
2018-09-14T17:04:25.001Z,14.97
2018-09-14T17:07:28.894Z,12.30
2018-09-14T17:10:32.566Z,11.90
2018-09-14T17:13:36.380Z,11.60
2018-09-14T17:16:40.200Z,12.07
2018-09-14T17:19:44.017Z,10.20
2018-09-14T17:22:47.795Z,11.97
2018-09-14T17:25:51.857Z,11.43
2018-09-14T17:28:55.681Z,11.87
2018-09-14T17:32:02.257Z,11.50
2018-09-14T17:35:06.148Z,11.70
2018-09-14T17:38:10.263Z,11.70
2018-09-14T17:41:14.721Z,12.63
2018-09-14T17:44:18.785Z,13.17
2018-09-14T17:47:22.466Z,14.10
2018-09-14T17:50:26.217Z,14.10
2018-09-14T17:53:30.026Z,13.20
2018-09-14T17:56:33.811Z,14.27
2018-09-14T17:59:37.628Z,15.17
2018-09-14T18:02:42.492Z,15.67
2018-09-14T18:05:47.470Z,15.20
2018-09-14T18:08:52.529Z,15.57
2018-09-14T18:11:56.329Z,16.37
2018-09-14T18:14:59.976Z,16.77
2018-09-14T18:18:03.790Z,17.00
2018-09-14T18:21:07.524Z,16.67
2018-09-14T18:24:11.210Z,17.23
2018-09-14T18:27:14.839Z,17.73
2018-09-14T18:30:18.532Z,18.40
2018-09-14T18:33:22.253Z,17.77
2018-09-14T18:36:26.521Z,18.27
2018-09-14T18:39:30.211Z,20.80
2018-09-14T18:42:34.022Z,18.77
2018-09-14T18:45:37.780Z,20.10
2018-09-14T18:48:43.871Z,19.10
2018-09-14T18:51:47.817Z,18.73
2018-09-14T18:54:51.761Z,19.93
2018-09-14T18:57:56.346Z,20.40
2018-09-14T19:01:02.571Z,19.67
2018-09-14T19:04:08.298Z,20.93
2018-09-14T19:07:12.088Z,20.77
2018-09-14T19:10:15.827Z,20.37
2018-09-14T19:13:19.625Z,19.87
2018-09-14T19:16:23.412Z,20.17
2018-09-14T19:19:27.145Z,20.73
2018-09-14T19:22:30.910Z,21.00
2018-09-14T19:25:34.765Z,20.20
2018-09-14T19:28:38.582Z,21.17
2018-09-14T19:31:42.382Z,19.43
2018-09-14T19:34:46.116Z,18.53
2018-09-14T19:37:50.046Z,19.40
2018-09-14T19:40:53.709Z,18.10
2018-09-14T19:43:57.653Z,18.83
2018-09-14T19:47:01.421Z,19.13
2018-09-14T19:50:05.382Z,19.13
2018-09-14T19:53:09.208Z,18.30
2018-09-14T19:56:13.033Z,19.07
2018-09-14T19:59:16.847Z,19.00
2018-09-14T20:02:20.648Z,18.30
2018-09-14T20:05:24.440Z,18.47
2018-09-14T20:08:28.158Z,19.67
2018-09-14T20:11:31.961Z,20.03
2018-09-14T20:14:35.647Z,19.00
2018-09-14T20:17:39.521Z,18.90
2018-09-14T20:20:43.226Z,18.20
2018-09-14T20:23:47.067Z,18.47
2018-09-14T20:26:50.675Z,18.27
2018-09-14T20:29:54.350Z,19.10
2018-09-14T20:32:58.195Z,18.37
2018-09-14T20:36:01.980Z,18.30
2018-09-14T20:39:08.591Z,18.33
2018-09-14T20:42:12.356Z,16.77
2018-09-14T20:45:16.417Z,17.47
2018-09-14T20:48:20.629Z,17.43
2018-09-14T20:51:24.800Z,16.67
2018-09-14T20:54:28.487Z,16.43
2018-09-14T20:57:32.311Z,17.47
2018-09-14T21:00:36.021Z,17.77
2018-09-14T21:03:39.732Z,16.43
2018-09-14T21:06:44.346Z,16.33
2018-09-14T21:09:48.181Z,17.90
2018-09-14T21:12:52.012Z,18.00
2018-09-14T21:15:55.697Z,16.80
2018-09-14T21:18:59.514Z,17.67
2018-09-14T21:22:03.360Z,17.03
2018-09-14T21:25:07.407Z,17.67
2018-09-14T21:28:11.160Z,18.07
2018-09-14T21:31:14.901Z,18.00
2018-09-14T21:34:18.593Z,18.23
2018-09-14T21:37:22.377Z,17.97
2018-09-14T21:40:26.168Z,17.43
2018-09-14T21:43:29.816Z,17.83
2018-09-14T21:46:33.565Z,17.00
2018-09-14T21:49:37.389Z,16.83
2018-09-14T21:52:41.165Z,17.47
2018-09-14T21:55:44.890Z,17.00
2018-09-14T21:58:48.620Z,17.77
2018-09-14T22:01:52.517Z,17.80
2018-09-14T22:04:56.484Z,16.00
2018-09-14T22:08:00.193Z,16.60
2018-09-14T22:11:03.876Z,16.10
2018-09-14T22:14:07.570Z,14.27
2018-09-14T22:17:11.175Z,13.60
2018-09-14T22:20:15.069Z,14.70
2018-09-14T22:23:18.827Z,13.00
2018-09-14T22:26:22.547Z,12.87
2018-09-14T22:29:26.289Z,13.20
2018-09-14T22:32:29.972Z,13.60
2018-09-14T22:35:33.729Z,11.73
2018-09-14T22:38:37.417Z,12.57
2018-09-14T22:41:41.116Z,13.60
2018-09-14T22:44:44.709Z,16.20
2018-09-14T22:47:48.446Z,16.00
2018-09-14T22:50:52.136Z,17.63
2018-09-14T22:53:55.782Z,17.90
2018-09-14T22:56:59.506Z,18.10
2018-09-14T23:00:03.217Z,18.57
2018-09-14T23:03:06.933Z,18.43
2018-09-14T23:06:10.872Z,18.17
2018-09-14T23:09:14.480Z,18.87
2018-09-14T23:12:18.191Z,17.50
2018-09-14T23:15:22.176Z,18.63
2018-09-14T23:18:25.841Z,17.30
2018-09-14T23:21:29.627Z,18.00
2018-09-14T23:24:33.287Z,17.23
2018-09-14T23:27:36.977Z,16.93
2018-09-14T23:30:40.730Z,16.90
2018-09-14T23:33:44.620Z,17.30
2018-09-14T23:36:48.286Z,18.47
2018-09-14T23:39:52.104Z,18.30
2018-09-14T23:42:56.022Z,17.33
2018-09-14T23:45:59.648Z,17.20
2018-09-14T23:49:03.279Z,16.83
2018-09-14T23:52:07.185Z,18.70
2018-09-14T23:55:10.826Z,17.80
2018-09-14T23:58:14.805Z,18.20
